Time;durP1;ratioP1;P1;durP2;ratioP2;P2;SDS_P1;SDS_P2;PMS_P1;PMS_P2;Temp;Humidity;BMP_temperature;BMP_pressure;BME280_temperature;BME280_humidity;BME280_pressure;Samples;Min_cycle;Max_cycle;Signal;HPM_P1;HPM_P2
2024/03/25 00:00:36;;;;;;;;;;;;;;;20.75;30.12;96365.66;5036663;28;1007;-77
2024/03/25 00:03:02;;;;;;;;;;;;;;;20.65;30.50;96362.06;5017519;28;1731;-77
2024/03/25 00:05:27;;;;;;;;;;;;;;;20.88;30.00;96339.97;5035654;28;942;-76
2024/03/25 00:07:53;;;;;;;;;;;;;;;20.66;30.44;96343.84;5017748;28;1893;-75
2024/03/25 00:10:20;;;;;;;;;;;;;;;20.86;30.04;96336.84;5037152;28;941;-76
2024/03/25 00:12:47;;;;;;;;;;;;;;;20.89;30.33;96336.69;5035068;28;1910;-76
2024/03/25 00:15:12;;;;;;;;;;;;;;;20.63;30.80;96333.53;5052001;28;939;-77
2024/03/25 00:17:38;;;;;;;;;;;;;;;20.80;30.38;96329.03;5035421;28;893;-76
2024/03/25 00:20:05;;;;;;;;;;;;;;;20.74;30.19;96316.81;5018508;28;910;-77
2024/03/25 00:22:31;;;;;;;;;;;;;;;20.76;30.12;96305.03;5018914;28;2110;-76
2024/03/25 00:24:57;;;;;;;;;;;;;;;20.65;30.15;96310.44;5017607;28;932;-75
2024/03/25 00:27:22;;;;;;;;;;;;;;;20.74;30.23;96311.16;5035142;28;1085;-76
2024/03/25 00:29:48;;;;;;;;;;;;;;;20.85;30.26;96309.84;5035299;28;941;-76
2024/03/25 00:32:14;;;;;;;;;;;;;;;20.94;30.17;96304.16;5035036;28;1964;-76
2024/03/25 00:34:40;;;;;;;;;;;;;;;20.94;29.92;96306.97;5002761;28;1162;-76
2024/03/25 00:37:06;;;;;;;;;;;;;;;21.00;30.12;96302.22;4997538;28;1637;-76
2024/03/25 00:39:34;;;;;;;;;;;;;;;20.99;29.90;96300.66;5015597;28;1096;-76
2024/03/25 00:42:00;;;;;;;;;;;;;;;20.78;30.22;96311.78;5032596;28;1197;-76
2024/03/25 00:44:25;;;;;;;;;;;;;;;20.82;29.93;96308.75;5016704;28;973;-76
2024/03/25 00:46:51;;;;;;;;;;;;;;;20.80;30.13;96312.06;4999629;28;1000;-76
2024/03/25 00:49:16;;;;;;;;;;;;;;;20.91;30.02;96311.53;4999081;28;1216;-76
2024/03/25 00:51:42;;;;;;;;;;;;;;;20.68;30.15;96307.44;5021448;28;1984;-76
2024/03/25 00:54:07;;;;;;;;;;;;;;;20.75;30.14;96306.28;5036717;28;939;-76
2024/03/25 00:56:33;;;;;;;;;;;;;;;20.37;30.45;96284.34;5035188;28;1126;-75
2024/03/25 00:59:02;;;;;;;;;;;;;;;20.41;30.49;96279.28;5036368;28;943;-76
2024/03/25 01:01:31;;;;;;;;;;;;;;;20.72;30.35;96279.75;5034816;28;907;-75
2024/03/25 01:03:57;;;;;;;;;;;;;;;20.85;29.84;96279.53;5036563;28;971;-76
2024/03/25 01:06:22;;;;;;;;;;;;;;;20.75;29.95;96281.63;5018320;28;1495;-76
2024/03/25 01:08:48;;;;;;;;;;;;;;;20.72;29.95;96282.59;5034843;28;905;-76
2024/03/25 01:11:14;;;;;;;;;;;;;;;20.63;29.99;96284.72;5018796;28;1186;-75
2024/03/25 01:13:41;;;;;;;;;;;;;;;20.65;30.20;96274.47;5013526;28;1898;-76
2024/03/25 01:16:07;;;;;;;;;;;;;;;20.96;29.39;96267.69;5014455;28;1053;-76
2024/03/25 01:18:33;;;;;;;;;;;;;;;20.94;29.58;96261.72;5013968;28;1154;-76
2024/03/25 01:20:59;;;;;;;;;;;;;;;20.84;29.98;96265.88;4997259;28;1890;-76
2024/03/25 01:23:24;;;;;;;;;;;;;;;20.81;29.92;96261.97;5014050;28;1000;-76
2024/03/25 01:25:50;;;;;;;;;;;;;;;20.95;29.65;96255.59;5013674;28;2174;-76
2024/03/25 01:28:16;;;;;;;;;;;;;;;20.71;29.81;96260.47;4997183;28;1089;-76
2024/03/25 01:30:41;;;;;;;;;;;;;;;20.67;29.89;96252.16;4958940;28;1321;-76
2024/03/25 01:33:07;;;;;;;;;;;;;;;20.69;29.87;96258.13;4993877;28;1989;-76
2024/03/25 01:35:32;;;;;;;;;;;;;;;20.80;29.62;96266.84;4962726;28;1037;-76
2024/03/25 01:37:58;;;;;;;;;;;;;;;20.83;29.99;96276.41;4962597;28;1207;-76
2024/03/25 01:40:24;;;;;;;;;;;;;;;20.96;29.56;96279.00;4978083;28;1844;-76
2024/03/25 01:42:58;;;;;;;;;;;;;;;20.88;29.72;96292.72;4962864;28;948;-76
2024/03/25 01:45:28;;;;;;;;;;;;;;;20.86;29.52;96292.41;4981254;28;1468;-76
2024/03/25 01:47:54;;;;;;;;;;;;;;;20.52;29.89;96296.50;5001030;28;1596;-76
2024/03/25 01:50:20;;;;;;;;;;;;;;;20.71;29.24;96314.94;5017574;28;937;-76
2024/03/25 01:52:46;;;;;;;;;;;;;;;20.55;29.83;96318.16;5001079;28;1906;-76
2024/03/25 01:55:13;;;;;;;;;;;;;;;20.92;29.37;96323.63;5015945;28;1977;-76
2024/03/25 01:57:38;;;;;;;;;;;;;;;21.00;29.65;96328.44;5001487;28;901;-76
2024/03/25 02:00:04;;;;;;;;;;;;;;;21.06;29.42;96331.38;5001073;28;996;-76
2024/03/25 02:02:35;;;;;;;;;;;;;;;21.16;29.28;96327.22;5018572;28;1069;-75
2024/03/25 02:05:02;;;;;;;;;;;;;;;20.94;29.59;96332.41;5020868;28;955;-76
2024/03/25 02:07:27;;;;;;;;;;;;;;;20.52;29.91;96333.25;5001089;28;1176;-76
2024/03/25 02:09:53;;;;;;;;;;;;;;;20.66;29.75;96335.38;5000678;28;1801;-76
2024/03/25 02:12:19;;;;;;;;;;;;;;;20.79;29.17;96341.59;5000762;28;1898;-76
2024/03/25 02:14:44;;;;;;;;;;;;;;;20.57;29.80;96346.72;5000479;28;963;-76
2024/03/25 02:17:10;;;;;;;;;;;;;;;20.48;29.82;96353.22;4984279;28;947;-76
2024/03/25 02:19:36;;;;;;;;;;;;;;;20.78;29.70;96342.88;5000919;28;1104;-76
2024/03/25 02:22:02;;;;;;;;;;;;;;;20.40;29.96;96351.16;4984746;28;1611;-76
2024/03/25 02:24:27;;;;;;;;;;;;;;;20.78;29.71;96351.34;4980546;28;1716;-76
2024/03/25 02:26:53;;;;;;;;;;;;;;;20.85;29.25;96352.25;4996956;28;1263;-76
2024/03/25 02:29:18;;;;;;;;;;;;;;;21.04;28.99;96359.38;4961540;28;1281;-76
2024/03/25 02:31:44;;;;;;;;;;;;;;;21.06;28.97;96356.84;4945650;28;1973;-76
2024/03/25 02:34:09;;;;;;;;;;;;;;;20.92;29.12;96351.88;4961509;28;985;-76
2024/03/25 02:36:35;;;;;;;;;;;;;;;20.81;29.49;96358.84;4961578;28;1112;-76
2024/03/25 02:39:00;;;;;;;;;;;;;;;20.76;29.06;96351.03;4994194;28;1911;-76
2024/03/25 02:41:30;;;;;;;;;;;;;;;20.74;29.35;96342.25;5036536;28;915;-76
2024/03/25 02:43:55;;;;;;;;;;;;;;;20.76;29.71;96342.56;5018889;28;988;-76
2024/03/25 02:46:21;;;;;;;;;;;;;;;20.79;29.42;96350.09;5003610;28;1127;-75
2024/03/25 02:48:46;;;;;;;;;;;;;;;21.05;29.07;96349.63;5019493;28;1020;-76
2024/03/25 02:51:12;;;;;;;;;;;;;;;21.07;29.32;96341.44;5036111;28;1163;-76
2024/03/25 02:53:38;;;;;;;;;;;;;;;20.91;29.26;96328.50;5034045;28;1905;-76
2024/03/25 02:56:03;;;;;;;;;;;;;;;20.79;29.25;96318.22;5007264;28;1918;-76
2024/03/25 02:58:29;;;;;;;;;;;;;;;20.85;28.74;96318.34;5019520;28;1103;-76
2024/03/25 03:00:54;;;;;;;;;;;;;;;20.85;28.81;96319.09;5037888;28;1023;-76
2024/03/25 03:03:20;;;;;;;;;;;;;;;20.57;29.33;96321.28;5036826;28;958;-76
2024/03/25 03:05:46;;;;;;;;;;;;;;;20.44;29.58;96312.22;4999794;28;974;-76
2024/03/25 03:08:11;;;;;;;;;;;;;;;20.58;29.57;96300.28;4999670;28;953;-76
2024/03/25 03:10:37;;;;;;;;;;;;;;;20.62;29.60;96294.41;4999274;28;1912;-75
2024/03/25 03:13:02;;;;;;;;;;;;;;;20.59;29.81;96296.19;4999561;28;1914;-76
2024/03/25 03:15:28;;;;;;;;;;;;;;;20.79;29.37;96306.91;4999732;28;1103;-77
2024/03/25 03:17:53;;;;;;;;;;;;;;;20.95;29.33;96326.28;5015779;28;963;-76
2024/03/25 03:20:20;;;;;;;;;;;;;;;20.57;29.60;96340.28;4999743;28;1262;-76
2024/03/25 03:22:46;;;;;;;;;;;;;;;20.58;29.67;96351.13;5015660;28;962;-76
2024/03/25 03:25:11;;;;;;;;;;;;;;;20.66;29.38;96326.91;4956571;28;1830;-76
2024/03/25 03:27:37;;;;;;;;;;;;;;;20.84;29.08;96334.50;4957254;28;1071;-76
2024/03/25 03:30:03;;;;;;;;;;;;;;;20.82;29.38;96337.03;4957395;28;946;-76
2024/03/25 03:32:28;;;;;;;;;;;;;;;20.90;29.25;96343.13;4957373;28;1911;-76
2024/03/25 03:34:54;;;;;;;;;;;;;;;20.79;29.42;96332.34;4957066;29;955;-76
2024/03/25 03:37:19;;;;;;;;;;;;;;;20.95;29.35;96322.66;4985851;28;988;-76
2024/03/25 03:39:45;;;;;;;;;;;;;;;20.79;29.17;96316.16;4995598;28;1791;-76
2024/03/25 03:42:11;;;;;;;;;;;;;;;20.81;29.47;96307.97;5012134;28;958;-76
2024/03/25 03:44:36;;;;;;;;;;;;;;;20.64;29.42;96298.34;4996085;28;1139;-77
2024/03/25 03:47:02;;;;;;;;;;;;;;;20.57;29.95;96303.56;4996471;28;987;-76
2024/03/25 03:49:27;;;;;;;;;;;;;;;20.79;29.60;96299.19;4979530;28;979;-76
2024/03/25 03:51:53;;;;;;;;;;;;;;;20.85;29.43;96292.88;4995963;28;1971;-76
2024/03/25 03:54:18;;;;;;;;;;;;;;;21.05;29.39;96287.41;4994203;28;1996;-76
2024/03/25 03:56:44;;;;;;;;;;;;;;;20.59;29.92;96301.81;4995098;28;1901;-76
2024/03/25 03:59:10;;;;;;;;;;;;;;;20.78;29.67;96314.59;4995400;28;992;-76
2024/03/25 04:01:35;;;;;;;;;;;;;;;20.73;29.46;96311.66;4997068;28;980;-75
2024/03/25 04:04:01;;;;;;;;;;;;;;;20.69;29.49;96311.81;5035583;28;1512;-76
2024/03/25 04:06:26;;;;;;;;;;;;;;;20.99;29.41;96317.63;5037197;28;1227;-76
2024/03/25 04:08:52;;;;;;;;;;;;;;;20.91;29.58;96331.31;5035600;28;935;-77
2024/03/25 04:11:17;;;;;;;;;;;;;;;20.95;29.37;96317.00;5036340;28;1690;-76
2024/03/25 04:13:43;;;;;;;;;;;;;;;20.92;29.73;96320.78;5035689;28;1914;-76
2024/03/25 04:16:09;;;;;;;;;;;;;;;20.69;29.83;96309.00;5019816;28;1129;-76
2024/03/25 04:18:35;;;;;;;;;;;;;;;20.70;30.05;96321.84;5035916;28;946;-76
2024/03/25 04:21:00;;;;;;;;;;;;;;;20.90;29.60;96314.84;5036115;28;1328;-76
2024/03/25 04:23:26;;;;;;;;;;;;;;;20.78;29.54;96308.94;5036150;28;922;-76
2024/03/25 04:25:52;;;;;;;;;;;;;;;20.77;29.63;96324.31;5036027;28;912;-76
2024/03/25 04:28:17;;;;;;;;;;;;;;;20.58;30.04;96317.22;5035152;28;1929;-76
2024/03/25 04:30:43;;;;;;;;;;;;;;;20.85;29.35;96323.97;5036293;28;913;-76
2024/03/25 04:33:08;;;;;;;;;;;;;;;20.91;29.51;96319.22;5035259;28;1914;-76
2024/03/25 04:35:34;;;;;;;;;;;;;;;21.08;29.61;96317.53;5035545;28;935;-76
2024/03/25 04:38:00;;;;;;;;;;;;;;;20.95;29.52;96317.00;4994693;28;946;-75
2024/03/25 04:40:25;;;;;;;;;;;;;;;20.87;29.77;96316.56;4995060;28;1448;-76
2024/03/25 04:42:51;;;;;;;;;;;;;;;21.01;29.86;96326.38;4992548;28;1955;-76
2024/03/25 04:45:17;;;;;;;;;;;;;;;20.64;30.11;96326.59;4972558;28;1596;-75
2024/03/25 04:47:42;;;;;;;;;;;;;;;20.90;29.35;96332.59;4994725;28;1017;-76
2024/03/25 04:50:09;;;;;;;;;;;;;;;20.90;29.67;96321.28;4962349;28;1233;-75
2024/03/25 04:52:34;;;;;;;;;;;;;;;20.79;29.96;96332.34;4978426;28;1990;-76
2024/03/25 04:55:00;;;;;;;;;;;;;;;20.74;29.91;96341.47;4955839;29;1068;-76
2024/03/25 04:57:25;;;;;;;;;;;;;;;20.87;29.74;96339.19;4940036;29;1269;-76
2024/03/25 04:59:51;;;;;;;;;;;;;;;20.79;29.60;96341.59;4956001;29;942;-76
2024/03/25 05:02:16;;;;;;;;;;;;;;;20.88;29.76;96351.28;4953173;29;2034;-76
2024/03/25 05:04:42;;;;;;;;;;;;;;;21.07;29.62;96347.09;4923937;29;1247;-76
2024/03/25 05:07:08;;;;;;;;;;;;;;;20.47;30.18;96333.91;4941360;29;1006;-76
2024/03/25 05:09:33;;;;;;;;;;;;;;;20.34;30.33;96333.31;4957793;28;1075;-76
2024/03/25 05:11:59;;;;;;;;;;;;;;;20.56;29.76;96331.03;4939904;29;1989;-75
2024/03/25 05:14:24;;;;;;;;;;;;;;;20.84;29.58;96328.09;4956486;29;981;-76
2024/03/25 05:16:52;;;;;;;;;;;;;;;20.74;29.85;96328.13;4956342;28;1093;-76
2024/03/25 05:19:18;;;;;;;;;;;;;;;21.03;29.50;96335.94;4940367;29;1121;-76
2024/03/25 05:21:43;;;;;;;;;;;;;;;20.91;29.58;96327.72;4917917;29;1183;-76
2024/03/25 05:24:09;;;;;;;;;;;;;;;20.95;29.60;96322.66;4918023;29;1025;-75
2024/03/25 05:26:35;;;;;;;;;;;;;;;20.96;29.52;96332.69;4918018;29;1148;-76
2024/03/25 05:29:00;;;;;;;;;;;;;;;20.88;29.76;96331.50;4902695;29;970;-76
2024/03/25 05:31:26;;;;;;;;;;;;;;;20.48;30.10;96327.78;4905709;29;1183;-76
2024/03/25 05:33:51;;;;;;;;;;;;;;;20.89;29.68;96330.25;4939725;29;1985;-76
2024/03/25 05:36:17;;;;;;;;;;;;;;;20.78;29.79;96320.25;4955802;29;966;-76
2024/03/25 05:38:42;;;;;;;;;;;;;;;20.78;29.44;96303.28;4939693;29;1005;-76
2024/03/25 05:41:08;;;;;;;;;;;;;;;20.59;29.79;96307.47;4940101;29;958;-76
2024/03/25 05:43:34;;;;;;;;;;;;;;;20.69;29.52;96294.88;4955790;28;1441;-77
2024/03/25 05:46:00;;;;;;;;;;;;;;;21.07;29.06;96284.88;4940045;29;932;-76
2024/03/25 05:48:25;;;;;;;;;;;;;;;20.86;29.50;96281.09;4961151;28;1064;-76
2024/03/25 05:51:17;;;;;;;;;;;;;;;20.90;29.51;96287.34;4998106;28;1318;-77
2024/03/25 05:53:42;;;;;;;;;;;;;;;20.50;29.69;96288.53;4939403;29;1977;-76
2024/03/25 05:56:08;;;;;;;;;;;;;;;20.80;29.70;96289.44;4940071;29;1056;-76
2024/03/25 05:58:34;;;;;;;;;;;;;;;20.76;29.44;96294.50;4928451;29;961;-78
2024/03/25 06:01:01;;;;;;;;;;;;;;;20.32;30.24;96282.94;4942699;29;967;-77
2024/03/25 06:03:26;;;;;;;;;;;;;;;20.73;29.48;96294.69;4911137;29;932;-78
2024/03/25 06:05:52;;;;;;;;;;;;;;;20.66;29.67;96287.34;4958751;28;1385;-77
2024/03/25 06:08:24;;;;;;;;;;;;;;;20.80;29.63;96289.44;4932824;28;1246;-78
2024/03/25 06:10:52;;;;;;;;;;;;;;;20.94;29.47;96282.31;4969717;28;1424;-78
2024/03/25 06:13:18;;;;;;;;;;;;;;;21.02;29.27;96286.31;4950418;29;1903;-78
2024/03/25 06:15:44;;;;;;;;;;;;;;;20.76;29.56;96288.06;4951758;29;1267;-78
2024/03/25 06:18:09;;;;;;;;;;;;;;;20.81;29.28;96293.84;4963060;28;1255;-78
2024/03/25 06:20:35;;;;;;;;;;;;;;;20.51;29.57;96292.13;4952961;28;1351;-78
2024/03/25 06:23:03;;;;;;;;;;;;;;;20.86;29.11;96286.75;4939741;28;1361;-77
2024/03/25 06:25:29;;;;;;;;;;;;;;;20.83;29.01;96286.91;4951354;29;1239;-77
2024/03/25 06:27:55;;;;;;;;;;;;;;;20.89;29.12;96296.31;4949683;28;1410;-78
2024/03/25 06:35:49;;;;;;;;;;;;;;;20.76;29.81;96311.47;5038282;28;1325;-78
2024/03/25 06:38:14;;;;;;;;;;;;;;;20.91;29.45;96322.84;5043186;28;1261;-78
2024/03/25 06:40:40;;;;;;;;;;;;;;;20.74;29.88;96325.28;5026229;28;1400;-78
2024/03/25 06:43:06;;;;;;;;;;;;;;;20.72;29.76;96327.81;5028087;28;1130;-78
2024/03/25 06:45:31;;;;;;;;;;;;;;;20.69;29.75;96350.59;5029541;28;1193;-78
2024/03/25 06:48:00;;;;;;;;;;;;;;;20.69;29.73;96336.47;5044896;28;1190;-76
2024/03/25 06:50:25;;;;;;;;;;;;;;;20.75;29.68;96346.63;5059684;28;1205;-78
2024/03/25 06:52:52;;;;;;;;;;;;;;;20.82;29.44;96353.97;5025855;28;1910;-76
2024/03/25 06:55:22;;;;;;;;;;;;;;;20.87;29.39;96355.38;5028075;28;1217;-76
2024/03/25 06:57:50;;;;;;;;;;;;;;;20.89;29.69;96358.53;5059122;28;1271;-76
2024/03/25 07:00:16;;;;;;;;;;;;;;;20.86;29.71;96351.75;5026754;28;1237;-77
2024/03/25 07:02:41;;;;;;;;;;;;;;;20.94;29.77;96355.03;5028077;28;1268;-76
2024/03/25 07:05:07;;;;;;;;;;;;;;;20.73;30.01;96362.53;5028475;28;1245;-76
2024/03/25 07:07:33;;;;;;;;;;;;;;;21.00;29.07;96364.41;5025693;28;1233;-77
2024/03/25 07:09:59;;;;;;;;;;;;;;;20.88;29.66;96369.03;5028097;28;1189;-76
2024/03/25 07:12:25;;;;;;;;;;;;;;;20.76;29.60;96361.56;5059705;28;1906;-77
2024/03/25 07:14:52;;;;;;;;;;;;;;;20.30;30.40;96365.31;5008981;28;1277;-77
2024/03/25 07:17:18;;;;;;;;;;;;;;;20.62;29.60;96367.91;5010061;28;1250;-77
2024/03/25 07:19:44;;;;;;;;;;;;;;;20.67;28.98;96382.16;5008552;28;1245;-76
2024/03/25 07:22:10;;;;;;;;;;;;;;;20.81;28.96;96375.03;4991661;28;1445;-76
2024/03/25 07:24:36;;;;;;;;;;;;;;;20.87;29.32;96400.59;5009685;28;1484;-77
2024/03/25 07:27:01;;;;;;;;;;;;;;;21.02;28.75;96401.47;5024677;28;1242;-76
2024/03/25 07:29:27;;;;;;;;;;;;;;;20.96;28.68;96398.50;5004294;28;1317;-76
2024/03/25 07:31:53;;;;;;;;;;;;;;;21.10;28.66;96384.94;5005770;28;1910;-76
2024/03/25 07:34:18;;;;;;;;;;;;;;;20.93;28.76;96393.03;4988295;28;1270;-76
2024/03/25 07:36:45;;;;;;;;;;;;;;;21.03;28.48;96380.41;4988225;28;1305;-77
2024/03/25 07:39:11;;;;;;;;;;;;;;;21.09;28.57;96389.81;5006165;28;1294;-76
2024/03/25 07:41:39;;;;;;;;;;;;;;;21.04;28.34;96387.66;4964447;28;1454;-76
2024/03/25 07:44:05;;;;;;;;;;;;;;;20.75;28.75;96383.38;4927585;29;1279;-77
2024/03/25 07:46:30;;;;;;;;;;;;;;;20.87;28.50;96397.78;4927096;29;1314;-77
2024/03/25 07:48:56;;;;;;;;;;;;;;;20.86;28.52;96402.66;4943107;29;1284;-76
2024/03/25 07:51:22;;;;;;;;;;;;;;;20.76;28.60;96401.91;4946486;29;1243;-77
2024/03/25 07:53:47;;;;;;;;;;;;;;;20.92;28.14;96414.88;4946218;28;1980;-76
2024/03/25 07:56:14;;;;;;;;;;;;;;;20.91;28.28;96406.88;4931896;29;1358;-76
2024/03/25 07:58:39;;;;;;;;;;;;;;;20.93;28.38;96416.44;4945651;29;1287;-76
2024/03/25 08:01:05;;;;;;;;;;;;;;;20.89;28.20;96415.06;4961434;28;1278;-77
2024/03/25 08:03:31;;;;;;;;;;;;;;;20.81;28.33;96404.09;4950151;28;1296;-76
2024/03/25 08:05:57;;;;;;;;;;;;;;;20.63;28.75;96415.47;4965203;28;1330;-76
2024/03/25 08:08:22;;;;;;;;;;;;;;;20.75;28.31;96399.56;4949923;28;1243;-77
2024/03/25 08:10:48;;;;;;;;;;;;;;;20.67;28.34;96410.41;4965745;28;1235;-76
2024/03/25 08:13:14;;;;;;;;;;;;;;;20.97;27.65;96417.03;4978862;28;1907;-76
2024/03/25 08:15:39;;;;;;;;;;;;;;;21.10;27.54;96418.88;5016328;28;1306;-77
2024/03/25 08:18:05;;;;;;;;;;;;;;;21.04;27.83;96427.25;5043728;28;1285;-77
2024/03/25 08:20:30;;;;;;;;;;;;;;;20.99;27.81;96430.72;5029068;28;1316;-77
2024/03/25 08:22:56;;;;;;;;;;;;;;;20.75;28.40;96422.97;5042902;28;1460;-76
2024/03/25 08:25:21;;;;;;;;;;;;;;;20.89;28.38;96427.16;5044097;28;1409;-76
2024/03/25 08:27:47;;;;;;;;;;;;;;;20.86;27.93;96421.66;5043987;28;1292;-76
2024/03/25 08:30:13;;;;;;;;;;;;;;;20.84;27.86;96435.50;5026164;28;1332;-77
2024/03/25 08:32:38;;;;;;;;;;;;;;;20.64;28.22;96433.22;5027855;28;1973;-76
2024/03/25 08:35:04;;;;;;;;;;;;;;;20.72;28.35;96434.44;5043729;28;1264;-77
2024/03/25 08:37:29;;;;;;;;;;;;;;;20.81;28.07;96432.34;5042921;28;1339;-77
2024/03/25 08:39:55;;;;;;;;;;;;;;;20.87;28.31;96440.19;5028148;28;1373;-77
2024/03/25 08:42:21;;;;;;;;;;;;;;;21.18;27.71;96440.66;5018470;28;1234;-77
2024/03/25 08:44:47;;;;;;;;;;;;;;;21.14;27.77;96442.09;5037928;28;914;-76
2024/03/25 08:47:12;;;;;;;;;;;;;;;20.74;28.58;96438.34;5038107;28;1159;-76
2024/03/25 08:49:38;;;;;;;;;;;;;;;20.72;28.28;96435.22;5018480;28;1124;-76
2024/03/25 08:52:03;;;;;;;;;;;;;;;20.54;28.44;96430.41;5035322;28;1906;-76
2024/03/25 08:54:29;;;;;;;;;;;;;;;20.77;28.24;96431.72;5036452;28;1005;-76
2024/03/25 08:56:55;;;;;;;;;;;;;;;20.75;28.48;96441.97;5035402;28;972;-76
2024/03/25 08:59:20;;;;;;;;;;;;;;;21.00;28.18;96443.59;5018559;28;921;-77
2024/03/25 09:01:46;;;;;;;;;;;;;;;21.06;28.04;96436.00;5034235;28;906;-76
2024/03/25 09:04:11;;;;;;;;;;;;;;;20.91;28.19;96440.78;5034908;28;1080;-76
2024/03/25 09:06:37;;;;;;;;;;;;;;;20.72;28.51;96457.81;5018563;28;1031;-76
2024/03/25 09:11:47;;;;;;;;;;;;;;;20.90;28.09;96473.16;5036338;28;954;-76
2024/03/25 09:14:13;;;;;;;;;;;;;;;20.76;28.40;96461.25;5036351;28;1914;-77
2024/03/25 09:16:38;;;;;;;;;;;;;;;20.72;28.45;96463.47;5036362;28;1107;-76
2024/03/25 09:19:04;;;;;;;;;;;;;;;20.76;28.00;96455.59;5035895;28;916;-76
2024/03/25 09:21:30;;;;;;;;;;;;;;;20.59;28.41;96471.38;5034839;28;898;-76
2024/03/25 09:23:57;;;;;;;;;;;;;;;20.67;28.52;96464.13;5034706;28;909;-76
2024/03/25 09:26:23;;;;;;;;;;;;;;;20.80;28.36;96459.06;5035053;28;1245;-76
2024/03/25 09:28:49;;;;;;;;;;;;;;;21.09;27.79;96457.69;5018749;28;1074;-76
2024/03/25 09:31:15;;;;;;;;;;;;;;;21.06;27.61;96461.47;5036288;28;956;-77
2024/03/25 09:33:41;;;;;;;;;;;;;;;20.78;28.22;96455.94;5035034;28;1979;-76
2024/03/25 09:36:11;;;;;;;;;;;;;;;20.89;28.24;96451.81;5035104;28;932;-76
2024/03/25 09:38:37;;;;;;;;;;;;;;;20.79;28.01;96468.81;5035925;28;940;-76
2024/03/25 09:41:02;;;;;;;;;;;;;;;20.75;28.40;96479.50;5036396;28;976;-76
2024/03/25 09:43:32;;;;;;;;;;;;;;;20.81;28.26;96488.88;5034700;28;935;-77
2024/03/25 09:46:00;;;;;;;;;;;;;;;20.85;28.21;96505.69;5034724;28;958;-76
2024/03/25 09:48:26;;;;;;;;;;;;;;;21.03;27.91;96504.81;5035612;28;929;-76
2024/03/25 09:50:52;;;;;;;;;;;;;;;20.83;28.22;96513.06;4997207;28;1408;-76
2024/03/25 09:53:18;;;;;;;;;;;;;;;20.67;28.76;96514.97;4998902;28;1980;-77
2024/03/25 09:55:46;;;;;;;;;;;;;;;20.61;28.55;96513.28;5001612;28;1196;-76
2024/03/25 09:58:11;;;;;;;;;;;;;;;20.46;28.93;96501.81;4984809;28;1437;-77
2024/03/25 10:00:37;;;;;;;;;;;;;;;20.80;28.36;96501.47;5001349;28;985;-76
2024/03/25 10:03:03;;;;;;;;;;;;;;;20.91;28.22;96503.00;5000781;28;1052;-76
2024/03/25 10:05:28;;;;;;;;;;;;;;;21.20;27.71;96503.19;5017293;28;988;-76
2024/03/25 10:07:54;;;;;;;;;;;;;;;20.99;28.20;96495.75;5017438;28;981;-76
2024/03/25 10:10:20;;;;;;;;;;;;;;;20.93;28.39;96492.75;5000766;28;1119;-76
2024/03/25 10:12:45;;;;;;;;;;;;;;;21.00;28.27;96505.81;5017062;28;1997;-76
2024/03/25 10:15:17;;;;;;;;;;;;;;;20.81;28.36;96513.56;5017234;28;1047;-77
2024/03/25 10:17:44;;;;;;;;;;;;;;;20.56;29.03;96514.69;4984576;28;1202;-76
2024/03/25 10:20:15;;;;;;;;;;;;;;;20.43;28.88;96525.38;5000914;28;996;-77
2024/03/25 10:22:45;;;;;;;;;;;;;;;20.79;28.36;96533.81;5015965;28;1225;-77
2024/03/25 10:25:20;;;;;;;;;;;;;;;20.66;28.72;96527.56;5054589;28;1676;-76
2024/03/25 10:27:52;;;;;;;;;;;;;;;21.01;28.28;96535.63;5038710;28;1158;-76
2024/03/25 10:30:19;;;;;;;;;;;;;;;20.92;28.41;96518.69;5000121;28;1049;-76
2024/03/25 10:32:44;;;;;;;;;;;;;;;20.80;28.40;96526.91;5000243;28;1977;-76
2024/03/25 10:35:10;;;;;;;;;;;;;;;20.86;28.58;96523.44;4996962;28;1049;-76
2024/03/25 10:37:38;;;;;;;;;;;;;;;20.87;28.46;96519.34;4964836;28;1282;-77
2024/03/25 10:40:04;;;;;;;;;;;;;;;20.83;28.54;96502.56;4980707;28;1025;-76
2024/03/25 10:42:29;;;;;;;;;;;;;;;20.65;28.65;96511.88;4980786;28;962;-76
2024/03/25 10:44:55;;;;;;;;;;;;;;;20.70;28.75;96522.53;4980584;28;1126;-76
2024/03/25 10:47:24;;;;;;;;;;;;;;;20.71;28.71;96529.75;4980773;28;1016;-76
2024/03/25 10:49:50;;;;;;;;;;;;;;;20.69;28.71;96526.63;4980485;28;1029;-76
2024/03/25 10:52:16;;;;;;;;;;;;;;;20.79;28.83;96536.66;4997131;28;1969;-77
2024/03/25 10:54:48;;;;;;;;;;;;;;;20.79;28.69;96541.53;4964715;28;1019;-76
2024/03/25 10:57:14;;;;;;;;;;;;;;;20.76;28.92;96554.53;4996699;28;994;-76
2024/03/25 10:59:45;;;;;;;;;;;;;;;21.02;28.51;96548.50;4980666;28;997;-76
2024/03/25 11:02:11;;;;;;;;;;;;;;;20.97;28.64;96557.63;4997323;28;1081;-77
2024/03/25 11:04:37;;;;;;;;;;;;;;;20.80;28.64;96572.13;4990353;28;1298;-76
2024/03/25 11:07:14;;;;;;;;;;;;;;;20.20;29.67;96574.81;5053661;28;1230;-77
2024/03/25 11:09:40;;;;;;;;;;;;;;;20.64;28.97;96569.66;5060109;28;1273;-77
2024/03/25 11:12:06;;;;;;;;;;;;;;;20.42;29.45;96566.19;4988146;28;1910;-78
2024/03/25 11:14:32;;;;;;;;;;;;;;;20.80;28.67;96569.31;4959757;28;1235;-78
2024/03/25 11:16:57;;;;;;;;;;;;;;;20.66;28.96;96566.34;4960532;28;1295;-77
2024/03/25 11:19:26;;;;;;;;;;;;;;;20.74;28.73;96568.38;4960328;28;1251;-78
2024/03/25 11:21:52;;;;;;;;;;;;;;;21.07;28.30;96573.31;4958252;28;1228;-78
2024/03/25 11:24:28;;;;;;;;;;;;;;;20.84;28.83;96571.97;4976088;28;1278;-77
2024/03/25 11:26:53;;;;;;;;;;;;;;;20.94;28.64;96570.69;4960024;28;1335;-78
2024/03/25 11:29:19;;;;;;;;;;;;;;;20.74;28.92;96568.38;4956609;29;1236;-78
2024/03/25 11:31:44;;;;;;;;;;;;;;;20.98;28.68;96564.84;4956666;29;1252;-77
2024/03/25 11:34:10;;;;;;;;;;;;;;;20.65;28.88;96559.13;4940447;29;1977;-78
2024/03/25 11:36:37;;;;;;;;;;;;;;;20.81;28.70;96565.22;4925456;29;1496;-78
2024/03/25 11:39:09;;;;;;;;;;;;;;;20.90;28.42;96563.63;4940479;29;1314;-77
2024/03/25 11:41:35;;;;;;;;;;;;;;;20.64;29.24;96561.16;4941810;29;1204;-75
2024/03/25 11:44:01;;;;;;;;;;;;;;;21.08;28.46;96555.09;4954635;28;1264;-76
2024/03/25 11:46:27;;;;;;;;;;;;;;;20.95;28.76;96560.94;5044418;28;1400;-76
2024/03/25 11:48:52;;;;;;;;;;;;;;;20.98;28.52;96554.31;5018161;28;1324;-76
2024/03/25 11:51:19;;;;;;;;;;;;;;;20.75;28.88;96569.16;5018016;28;1320;-76
2024/03/25 11:53:44;;;;;;;;;;;;;;;20.58;28.96;96559.47;5017601;28;1971;-76
2024/03/25 11:56:12;;;;;;;;;;;;;;;20.76;28.81;96571.50;5034511;28;1355;-76
2024/03/25 11:58:38;;;;;;;;;;;;;;;20.37;29.24;96578.13;4998430;28;1496;-77
2024/03/25 12:01:04;;;;;;;;;;;;;;;20.51;29.40;96572.63;5015172;28;1250;-76
2024/03/25 12:03:30;;;;;;;;;;;;;;;20.87;28.87;96581.53;4998615;28;955;-76
2024/03/25 12:05:56;;;;;;;;;;;;;;;20.74;29.02;96579.69;4999476;28;917;-77
2024/03/25 12:08:25;;;;;;;;;;;;;;;20.83;28.65;96592.22;4999582;28;1191;-77
2024/03/25 12:13:35;;;;;;;;;;;;;;;20.58;29.27;96599.81;5015999;28;1972;-77
2024/03/25 12:16:02;;;;;;;;;;;;;;;20.69;29.16;96605.75;4999284;28;946;-77
2024/03/25 12:18:28;;;;;;;;;;;;;;;20.89;28.77;96598.81;5015814;28;911;-77
2024/03/25 12:20:53;;;;;;;;;;;;;;;20.75;28.62;96609.50;5015839;28;972;-77
2024/03/25 12:23:19;;;;;;;;;;;;;;;20.84;28.73;96610.78;4978459;28;970;-77
2024/03/25 12:25:48;;;;;;;;;;;;;;;20.69;29.04;96605.75;4995220;28;952;-76
2024/03/25 12:28:14;;;;;;;;;;;;;;;20.92;28.62;96614.81;4994654;28;1171;-76
2024/03/25 12:30:52;;;;;;;;;;;;;;;20.92;28.65;96617.66;4994842;28;1129;-76
2024/03/25 12:33:18;;;;;;;;;;;;;;;20.68;29.06;96623.97;4994545;28;1969;-77
2024/03/25 12:35:46;;;;;;;;;;;;;;;20.81;28.75;96613.28;4978681;28;1144;-76
2024/03/25 12:38:22;;;;;;;;;;;;;;;20.70;28.85;96624.28;4994779;28;938;-76
2024/03/25 12:40:47;;;;;;;;;;;;;;;20.69;28.88;96634.03;4994888;28;1044;-76
2024/03/25 12:43:16;;;;;;;;;;;;;;;21.09;28.36;96627.38;4994915;28;974;-76
2024/03/25 12:45:42;;;;;;;;;;;;;;;20.83;28.86;96631.78;4994837;28;990;-77
2024/03/25 12:48:08;;;;;;;;;;;;;;;20.90;29.06;96625.84;4994723;28;926;-76
2024/03/25 12:50:34;;;;;;;;;;;;;;;20.97;28.61;96625.50;4956060;29;962;-77
2024/03/25 12:52:59;;;;;;;;;;;;;;;20.71;29.07;96620.19;4956023;29;1983;-77
2024/03/25 12:55:25;;;;;;;;;;;;;;;21.05;28.63;96632.41;4993436;28;1223;-77
2024/03/25 12:57:51;;;;;;;;;;;;;;;20.84;28.64;96622.88;4994702;28;1026;-77
2024/03/25 13:00:16;;;;;;;;;;;;;;;20.91;28.65;96628.19;4978418;28;1103;-77
2024/03/25 13:02:42;;;;;;;;;;;;;;;20.76;29.17;96628.03;4978710;28;1205;-77
2024/03/25 13:05:08;;;;;;;;;;;;;;;20.29;29.70;96623.63;4978267;28;1293;-77